Time;durP1;ratioP1;P1;durP2;ratioP2;P2;SDS_P1;SDS_P2;PMS_P1;PMS_P2;Temp;Humidity;BMP_temperature;BMP_pressure;BME280_temperature;BME280_humidity;BME280_pressure;Samples;Min_cycle;Max_cycle;Signal;HPM_P1;HPM_P2
2024/02/01 00:02:39;;;;;;;22.50;13.30;;;;;;;3.83;100.00;101094.14;222592;1264;140230;-83
2024/02/01 00:07:39;;;;;;;19.20;11.40;;;;;;;3.86;100.00;101080.45;223144;1264;139025;-83
2024/02/01 00:12:41;;;;;;;20.10;11.60;;;;;;;3.90;100.00;101087.02;222598;1264;139951;-82
2024/02/01 00:17:41;;;;;;;27.60;11.60;;;;;;;3.95;100.00;101077.67;223188;1264;138839;-82
2024/02/01 00:22:42;;;;;;;18.70;11.50;;;;;;;4.01;100.00;101092.52;222643;1264;141195;-83
2024/02/01 00:27:42;;;;;;;18.40;10.10;;;;;;;4.06;100.00;101084.97;223325;1264;97853;-83
2024/02/01 00:32:43;;;;;;;18.20;9.90;;;;;;;4.11;100.00;101066.30;222679;1264;139702;-84
2024/02/01 00:37:43;;;;;;;19.30;10.90;;;;;;;4.15;100.00;101047.43;223286;1265;138907;-84
2024/02/01 00:42:44;;;;;;;16.20;9.50;;;;;;;4.19;100.00;101034.67;222550;1264;140259;-84
2024/02/01 00:47:47;;;;;;;17.80;10.30;;;;;;;4.22;100.00;101014.04;223246;1264;138672;-83
2024/02/01 00:52:48;;;;;;;17.80;10.40;;;;;;;4.25;100.00;100997.70;222722;1264;140553;-83
2024/02/01 00:57:48;;;;;;;17.60;10.00;;;;;;;4.28;100.00;100993.55;223520;1264;96639;-84
2024/02/01 01:02:49;;;;;;;21.30;10.90;;;;;;;4.31;100.00;100985.13;222628;1264;140010;-85
2024/02/01 01:07:49;;;;;;;20.70;11.20;;;;;;;4.34;100.00;100973.96;220775;1263;138817;-85
2024/02/01 01:12:50;;;;;;;20.00;11.30;;;;;;;4.36;100.00;100953.55;220607;1265;140058;-82
2024/02/01 01:17:50;;;;;;;24.90;12.50;;;;;;;4.35;100.00;100940.48;222905;1265;138966;-84
2024/02/01 01:22:51;;;;;;;21.00;11.30;;;;;;;4.34;100.00;100931.30;223068;1264;140547;-84
2024/02/01 01:27:51;;;;;;;19.80;10.50;;;;;;;4.33;100.00;100928.40;224258;1264;95871;-82
2024/02/01 01:32:52;;;;;;;22.90;11.90;;;;;;;4.33;100.00;100925.58;223640;1263;140077;-83
2024/02/01 01:37:52;;;;;;;25.30;12.40;;;;;;;4.34;100.00;100915.79;224176;1264;138746;-82
2024/02/01 01:42:53;;;;;;;21.20;10.80;;;;;;;4.33;100.00;100922.39;223096;1267;139249;-85
2024/02/01 01:47:53;;;;;;;21.90;11.30;;;;;;;4.34;100.00;100924.55;223255;1265;139397;-85
2024/02/01 01:52:56;;;;;;;23.40;11.80;;;;;;;4.37;100.00;100916.55;222669;1264;140732;-84
2024/02/01 01:57:57;;;;;;;21.20;12.00;;;;;;;4.38;100.00;100906.61;223630;1264;96768;-85
2024/02/01 02:02:57;;;;;;;21.50;11.10;;;;;;;4.37;100.00;100897.19;222690;1267;140900;-84
2024/02/01 02:07:58;;;;;;;25.30;13.10;;;;;;;4.37;100.00;100890.66;223127;1264;138846;-86
2024/02/01 02:12:58;;;;;;;24.30;13.30;;;;;;;4.37;100.00;100881.89;222720;1264;139319;-84
2024/02/01 02:17:59;;;;;;;25.80;12.80;;;;;;;4.36;100.00;100879.55;223254;1264;139000;-84
2024/02/01 02:22:59;;;;;;;25.00;12.20;;;;;;;4.37;100.00;100873.75;222763;1263;139680;-85
2024/02/01 02:28:00;;;;;;;20.90;11.50;;;;;;;4.38;100.00;100869.67;223168;1264;98391;-85
2024/02/01 02:33:01;;;;;;;22.20;9.70;;;;;;;4.39;100.00;100853.67;222639;1264;139510;-84
2024/02/01 02:38:02;;;;;;;19.60;10.50;;;;;;;4.41;100.00;100837.94;223276;1264;138516;-84
2024/02/01 02:43:02;;;;;;;20.00;9.80;;;;;;;4.44;100.00;100825.13;222710;1264;140235;-83
2024/02/01 02:48:05;;;;;;;21.00;10.20;;;;;;;4.46;100.00;100810.90;223222;1264;139428;-84
2024/02/01 02:53:06;;;;;;;19.30;9.70;;;;;;;4.48;100.00;100815.02;219756;1264;139952;-84
2024/02/01 02:58:06;;;;;;;20.80;9.60;;;;;;;4.49;100.00;100810.40;221769;1265;97963;-85
2024/02/01 03:03:07;;;;;;;17.50;9.70;;;;;;;4.50;100.00;100804.68;222522;1265;139643;-83
2024/02/01 03:08:09;;;;;;;16.80;8.90;;;;;;;4.51;100.00;100795.99;223004;1264;138772;-83
2024/02/01 03:13:09;;;;;;;16.20;9.00;;;;;;;4.52;100.00;100796.20;222525;1264;139752;-84
2024/02/01 03:18:10;;;;;;;16.30;8.00;;;;;;;4.54;100.00;100796.96;223158;1264;139468;-84
2024/02/01 03:23:11;;;;;;;17.40;8.40;;;;;;;4.56;100.00;100793.40;222618;1264;139975;-84
2024/02/01 03:28:13;;;;;;;14.50;8.10;;;;;;;4.57;100.00;100780.22;223248;1264;96546;-84
2024/02/01 03:33:14;;;;;;;15.20;8.10;;;;;;;4.59;100.00;100765.40;222648;1264;140157;-85
2024/02/01 03:38:15;;;;;;;16.80;8.80;;;;;;;4.61;100.00;100765.25;223212;1265;138723;-83
2024/02/01 03:43:15;;;;;;;16.40;7.10;;;;;;;4.63;100.00;100770.31;222608;1264;139671;-84
2024/02/01 03:48:17;;;;;;;14.50;7.60;;;;;;;4.65;100.00;100770.39;223084;1264;138786;-84
2024/02/01 03:53:18;;;;;;;12.60;6.60;;;;;;;4.67;100.00;100765.66;222631;1264;139432;-84
2024/02/01 03:58:18;;;;;;;14.20;7.30;;;;;;;4.69;100.00;100759.74;223299;1264;97723;-85
2024/02/01 04:03:19;;;;;;;15.10;7.60;;;;;;;4.71;100.00;100746.59;222853;1266;139155;-86
2024/02/01 04:08:19;;;;;;;14.80;7.30;;;;;;;4.73;100.00;100746.73;222923;1264;138785;-84
2024/02/01 04:13:20;;;;;;;14.70;8.00;;;;;;;4.75;100.00;100750.23;222386;1264;140380;-85
2024/02/01 04:18:20;;;;;;;14.70;7.50;;;;;;;4.76;100.00;100749.48;222955;1264;139071;-84
2024/02/01 04:23:21;;;;;;;16.00;8.20;;;;;;;4.77;100.00;100747.23;222485;1264;139809;-84
2024/02/01 04:28:21;;;;;;;17.60;8.40;;;;;;;4.78;100.00;100752.92;223258;1264;97895;-85
2024/02/01 04:33:22;;;;;;;14.20;7.30;;;;;;;4.80;100.00;100756.04;222695;1265;139160;-84
2024/02/01 04:38:25;;;;;;;14.40;7.90;;;;;;;4.80;100.00;100763.30;220199;1266;139128;-83
2024/02/01 04:43:25;;;;;;;16.60;8.30;;;;;;;4.81;100.00;100766.21;221241;1264;139786;-84
2024/02/01 04:48:26;;;;;;;14.40;7.90;;;;;;;4.82;100.00;100763.97;222801;1264;140728;-85
2024/02/01 04:53:26;;;;;;;19.60;9.40;;;;;;;4.81;100.00;100759.20;222391;1264;139552;-85
2024/02/01 04:58:27;;;;;;;18.00;9.00;;;;;;;4.77;100.00;100756.34;223185;1265;96836;-84
2024/02/01 05:03:27;;;;;;;18.90;9.00;;;;;;;4.74;100.00;100755.56;222985;1265;139226;-86
2024/02/01 05:08:28;;;;;;;23.10;9.10;;;;;;;4.69;100.00;100755.36;222820;1266;139106;-85
2024/02/01 05:13:30;;;;;;;16.80;8.90;;;;;;;4.62;100.00;100757.84;222541;1266;140560;-86
2024/02/01 05:18:30;;;;;;;17.50;9.00;;;;;;;4.56;100.00;100757.52;223103;1265;139349;-86
2024/02/01 05:23:31;;;;;;;19.50;9.00;;;;;;;4.50;100.00;100756.02;222363;1267;139616;-86
2024/02/01 05:28:33;;;;;;;16.80;9.10;;;;;;;4.44;100.00;100757.65;223242;1264;97403;-85
2024/02/01 05:33:37;;;;;;;20.30;8.90;;;;;;;4.39;100.00;100757.83;222621;1264;139393;-84
2024/02/01 05:38:41;;;;;;;17.00;9.00;;;;;;;4.35;100.00;100758.20;223073;1264;139214;-85
2024/02/01 05:43:43;;;;;;;17.70;8.90;;;;;;;4.30;100.00;100756.29;222579;1266;139284;-88
2024/02/01 05:48:43;;;;;;;15.60;7.70;;;;;;;4.25;100.00;100756.48;223027;1264;138728;-87
2024/02/01 05:53:44;;;;;;;19.10;8.90;;;;;;;4.20;100.00;100753.92;222441;1264;139666;-85
2024/02/01 05:58:44;;;;;;;18.10;8.50;;;;;;;4.13;100.00;100754.19;223148;1264;138777;-85
2024/02/01 06:03:45;;;;;;;20.60;8.90;;;;;;;4.08;100.00;100752.58;223090;1264;140273;-90
2024/02/01 06:08:45;;;;;;;17.80;7.80;;;;;;;4.05;100.00;100764.73;222980;1266;139026;-86
2024/02/01 06:13:48;;;;;;;15.40;7.80;;;;;;;4.03;100.00;100767.96;222273;1266;139925;-87
2024/02/01 06:18:49;;;;;;;16.40;8.30;;;;;;;3.97;100.00;100765.26;222961;1266;140126;-85
2024/02/01 06:23:49;;;;;;;16.60;8.90;;;;;;;3.98;100.00;100774.17;219685;1267;140333;-85
2024/02/01 06:28:49;;;;;;;15.90;8.20;;;;;;;3.97;100.00;100769.68;221428;1266;139155;-87
2024/02/01 06:33:53;;;;;;;15.90;7.90;;;;;;;3.94;100.00;100770.96;221664;1264;139506;-86
2024/02/01 06:49:18;;;;;;;14.90;8.10;;;;;;;3.88;100.00;100773.38;220307;1268;138688;-83
2024/02/01 06:54:39;;;;;;;13.80;8.00;;;;;;;3.85;100.00;100768.14;220477;1267;139474;-85
2024/02/01 07:05:03;;;;;;;15.00;8.00;;;;;;;3.82;100.00;100768.41;223051;1267;138884;-85
2024/02/01 07:10:14;;;;;;;15.50;8.90;;;;;;;3.82;100.00;100772.76;222583;1265;139821;-86
2024/02/01 07:20:35;;;;;;;15.80;8.30;;;;;;;3.83;100.00;100782.42;222579;1265;140149;-84
2024/02/01 07:25:46;;;;;;;18.30;9.50;;;;;;;3.84;100.00;100785.86;222934;1265;140098;-86
2024/02/01 08:02:49;;;;;;;23.70;13.40;;;;;;;4.11;100.00;100837.06;222840;1266;139731;-84
2024/02/01 08:07:54;;;;;;;21.60;12.80;;;;;;;4.16;100.00;100842.39;221231;1267;138882;-86
2024/02/01 08:12:55;;;;;;;20.00;11.30;;;;;;;4.22;100.00;100852.64;219950;1268;140311;-86
2024/02/01 08:17:55;;;;;;;21.00;11.20;;;;;;;4.27;100.00;100848.80;222616;1268;140083;-86
2024/02/01 08:22:56;;;;;;;25.10;13.80;;;;;;;4.33;100.00;100856.97;222152;1266;139870;-86
2024/02/01 08:27:58;;;;;;;21.10;12.10;;;;;;;4.38;100.00;100863.66;222939;1267;108400;-86
2024/02/01 08:33:05;;;;;;;22.90;13.90;;;;;;;4.44;100.00;100866.39;222432;1266;140221;-86
2024/02/01 08:38:09;;;;;;;21.10;12.10;;;;;;;4.50;100.00;100867.98;222714;1265;139127;-87
2024/02/01 08:43:13;;;;;;;22.10;11.70;;;;;;;4.55;100.00;100868.51;222496;1264;140732;-87
2024/02/01 08:48:14;;;;;;;20.60;11.80;;;;;;;4.59;100.00;100876.79;222983;1265;139751;-85
2024/02/01 08:53:16;;;;;;;23.20;11.10;;;;;;;4.66;100.00;100888.61;222615;1268;140257;-86
2024/02/01 08:58:17;;;;;;;24.10;13.10;;;;;;;4.74;100.00;100888.45;223129;1266;96600;-86
2024/02/01 09:03:29;;;;;;;20.50;11.50;;;;;;;4.83;100.00;100885.80;222765;1264;140187;-88
2024/02/01 09:08:35;;;;;;;20.90;11.50;;;;;;;4.95;100.00;100885.27;222971;1268;139214;-89
2024/02/01 09:13:37;;;;;;;;;;;;;;;5.06;100.00;100887.53;222224;1266;139610;-87
2024/02/01 09:18:37;;;;;;;16.80;10.10;;;;;;;5.14;100.00;100890.17;223094;1266;126021;-88
2024/02/01 09:23:38;;;;;;;16.90;9.30;;;;;;;5.22;100.00;100893.38;222474;1267;140364;-88
2024/02/01 09:28:40;;;;;;;18.30;9.40;;;;;;;5.30;100.00;100893.39;223162;1267;97881;-88
2024/02/01 09:33:43;;;;;;;14.60;7.40;;;;;;;5.37;100.00;100897.71;222481;1266;139739;-90
2024/02/01 09:38:44;;;;;;;13.10;7.70;;;;;;;5.44;100.00;100893.56;222986;1266;139142;-90
2024/02/01 09:43:48;;;;;;;15.50;8.30;;;;;;;5.53;100.00;100891.98;222250;1266;139533;-92
2024/02/01 09:48:49;;;;;;;12.50;6.90;;;;;;;5.71;100.00;100887.97;222878;1266;139279;-90
2024/02/01 09:53:50;;;;;;;13.40;7.00;;;;;;;5.84;100.00;100889.36;221095;1264;140166;-91
2024/02/01 09:58:51;;;;;;;13.40;6.50;;;;;;;5.96;100.00;100890.13;220761;1267;138730;-91
2024/02/01 10:03:52;;;;;;;18.60;7.80;;;;;;;6.06;100.00;100879.89;222182;1264;139426;-90
2024/02/01 10:08:53;;;;;;;12.40;6.40;;;;;;;6.28;100.00;100881.36;222939;1266;137457;-93
2024/02/01 10:13:58;;;;;;;11.60;6.30;;;;;;;6.45;100.00;100884.22;222243;1263;139789;-93
2024/02/01 10:19:11;;;;;;;13.80;5.30;;;;;;;6.64;100.00;100884.73;222958;1266;138902;-95
2024/02/01 10:24:14;;;;;;;16.90;5.10;;;;;;;6.76;100.00;100886.23;222351;1267;425664;-93
2024/02/01 10:29:17;;;;;;;14.40;4.80;;;;;;;6.83;100.00;100885.30;222961;1267;138843;-94
2024/02/01 10:34:20;;;;;;;13.90;4.40;;;;;;;6.92;100.00;100891.45;222456;1268;140345;-92
2024/02/01 10:39:27;;;;;;;14.80;4.30;;;;;;;6.90;100.00;100886.86;223012;1268;139089;-92
2024/02/01 10:44:33;;;;;;;17.80;4.40;;;;;;;6.89;100.00;100872.99;222417;1268;139902;-94
2024/02/01 10:49:40;;;;;;;9.90;4.30;;;;;;;6.95;100.00;100865.90;222974;1264;139052;-93
2024/02/01 10:54:42;;;;;;;11.20;4.70;;;;;;;7.05;100.00;100862.77;222424;1267;139136;-91
2024/02/01 10:59:45;;;;;;;12.00;4.50;;;;;;;7.16;100.00;100861.56;222960;1264;139207;-90
2024/02/01 11:04:47;;;;;;;15.30;3.60;;;;;;;7.30;100.00;100860.92;222826;1264;139633;-92
2024/02/01 11:09:51;;;;;;;15.80;3.30;;;;;;;7.40;100.00;100852.32;222748;1267;139411;-89
2024/02/01 11:14:52;;;;;;;15.90;3.40;;;;;;;7.44;100.00;100848.06;222746;1264;139055;-92
2024/02/01 11:19:55;;;;;;;11.70;3.40;;;;;;;7.36;100.00;100833.02;222830;1264;140088;-86
2024/02/01 11:25:04;;;;;;;11.50;3.40;;;;;;;7.28;100.00;100830.30;222963;1268;139258;-91
2024/02/01 11:30:21;;;;;;;10.00;2.90;;;;;;;7.30;100.00;100824.70;222364;1266;139869;-89
2024/02/01 11:35:23;;;;;;;11.30;4.40;;;;;;;7.28;100.00;100833.64;222793;1264;138797;-91
2024/02/01 11:40:24;;;;;;;15.20;4.30;;;;;;;7.27;100.00;100831.50;220497;1269;139698;-89
2024/02/01 11:45:25;;;;;;;17.20;3.90;;;;;;;7.28;100.00;100831.21;220824;1269;138773;-90
2024/02/01 11:50:26;;;;;;;11.60;3.40;;;;;;;7.34;100.00;100835.14;222008;1264;139989;-90
2024/02/01 11:55:29;;;;;;;14.00;3.10;;;;;;;7.45;99.98;100847.93;222772;1266;140115;-92
2024/02/01 12:00:29;;;;;;;14.60;3.10;;;;;;;7.51;99.99;100853.36;222301;1264;139568;-89
2024/02/01 12:05:32;;;;;;;8.60;2.90;;;;;;;7.54;99.73;100863.15;223418;1264;138088;-93
2024/02/01 12:10:35;;;;;;;8.00;2.50;;;;;;;7.55;98.99;100872.89;222077;1264;139658;-90
2024/02/01 12:15:39;;;;;;;14.40;2.60;;;;;;;7.59;99.43;100874.80;222921;1264;137924;-88
2024/02/01 12:20:43;;;;;;;15.80;2.40;;;;;;;7.66;96.75;100866.88;222265;1267;139598;-89
2024/02/01 12:25:47;;;;;;;14.70;3.50;;;;;;;7.69;97.33;100865.17;222757;1264;138741;-90
2024/02/01 12:30:48;;;;;;;13.50;2.80;;;;;;;7.72;96.85;100862.36;222014;1264;139597;-88
2024/02/01 12:35:48;;;;;;;13.50;2.60;;;;;;;7.76;96.47;100860.13;222421;1267;138468;-91
2024/02/01 12:40:49;;;;;;;12.40;2.40;;;;;;;7.83;95.05;100871.92;222098;1267;139798;-91
2024/02/01 12:45:49;;;;;;;13.00;2.30;;;;;;;7.85;93.73;100873.86;223039;1266;96613;-90
2024/02/01 12:50:50;;;;;;;12.00;2.30;;;;;;;7.79;94.08;100880.17;222476;1264;138912;-90
2024/02/01 12:55:50;;;;;;;18.70;2.70;;;;;;;7.73;92.73;100888.14;222948;1264;138654;-91
2024/02/01 13:00:52;;;;;;;12.50;1.90;;;;;;;7.72;93.08;100884.65;222346;1264;139344;-91
2024/02/01 13:05:53;;;;;;;11.80;2.50;;;;;;;7.69;92.33;100881.38;223192;1266;138530;-90
2024/02/01 13:10:55;;;;;;;16.20;2.20;;;;;;;7.71;93.15;100875.95;222345;1264;139740;-89
2024/02/01 13:15:55;;;;;;;10.80;2.30;;;;;;;7.75;93.10;100881.63;223085;1264;97779;-93
2024/02/01 13:20:56;;;;;;;12.90;2.70;;;;;;;7.74;93.56;100882.86;222660;1269;139530;-91
2024/02/01 13:25:56;;;;;;;17.70;3.50;;;;;;;7.71;93.91;100889.66;221533;1269;138124;-92
2024/02/01 13:30:57;;;;;;;13.90;2.40;;;;;;;7.69;93.93;100893.91;220773;1264;139185;-92
2024/02/01 13:35:57;;;;;;;12.30;2.20;;;;;;;7.64;94.61;100900.80;222605;1269;138955;-90
2024/02/01 13:40:59;;;;;;;13.70;2.70;;;;;;;7.61;95.14;100906.25;222281;1269;139737;-91
2024/02/01 13:45:59;;;;;;;14.50;2.80;;;;;;;7.58;95.47;100908.52;223064;1264;97810;-91
2024/02/01 13:51:03;;;;;;;12.20;3.40;;;;;;;7.54;94.43;100919.79;222431;1264;139905;-92
2024/02/01 13:56:04;;;;;;;13.50;2.00;;;;;;;7.48;92.75;100915.95;223110;1264;138499;-92
2024/02/01 14:01:04;;;;;;;15.50;2.20;;;;;;;7.45;92.25;100921.34;222719;1264;139690;-92
2024/02/01 14:06:05;;;;;;;13.70;2.30;;;;;;;7.40;91.20;100931.80;223466;1264;138966;-93
2024/02/01 14:11:05;;;;;;;10.60;2.80;;;;;;;7.34;91.74;100932.23;222608;1264;140197;-92
2024/02/01 14:16:07;;;;;;;13.70;3.30;;;;;;;7.30;90.99;100925.94;223035;1264;97929;-91
2024/02/01 14:21:08;;;;;;;9.10;2.40;;;;;;;7.28;90.92;100923.44;222682;1264;139475;-92
2024/02/01 14:26:09;;;;;;;13.90;2.50;;;;;;;7.28;90.73;100921.03;222679;1264;138138;-92
2024/02/01 14:31:09;;;;;;;16.90;3.60;;;;;;;7.25;90.99;100923.36;222373;1264;139964;-90
2024/02/01 14:36:10;;;;;;;11.60;3.10;;;;;;;7.19;90.53;100932.44;222954;1264;139086;-90
2024/02/01 14:41:10;;;;;;;15.30;2.80;;;;;;;7.09;90.75;100939.32;222226;1264;140185;-92
2024/02/01 14:46:12;;;;;;;15.80;3.40;;;;;;;7.04;90.81;100954.16;222705;1264;98000;-91
2024/02/01 14:51:13;;;;;;;16.30;2.80;;;;;;;7.00;90.54;100968.13;222197;1264;139730;-90
2024/02/01 14:56:13;;;;;;;17.00;3.40;;;;;;;6.93;90.67;100974.90;223039;1264;138289;-92
2024/02/01 15:01:14;;;;;;;15.00;2.50;;;;;;;6.84;90.56;100981.63;222248;1264;139013;-92
2024/02/01 15:06:14;;;;;;;14.70;3.30;;;;;;;6.77;90.19;100972.02;222937;1264;138625;-92
2024/02/01 15:11:17;;;;;;;19.50;3.50;;;;;;;6.73;90.09;100973.12;221496;1264;139412;-88
2024/02/01 15:16:18;;;;;;;14.20;3.50;;;;;;;6.72;89.03;100961.20;221136;1264;97930;-87
2024/02/01 15:21:18;;;;;;;17.20;3.60;;;;;;;6.66;89.58;100963.42;221892;1264;139180;-87
2024/02/01 15:26:19;;;;;;;18.00;5.60;;;;;;;6.58;90.03;100973.21;222921;1264;138397;-88
2024/02/01 15:31:22;;;;;;;17.20;4.50;;;;;;;6.53;89.84;100970.83;222348;1264;139775;-90
2024/02/01 15:36:24;;;;;;;26.20;5.40;;;;;;;6.46;90.05;100975.27;222923;1264;138601;-88
2024/02/01 15:41:25;;;;;;;25.30;4.50;;;;;;;6.39;90.36;100975.05;222371;1267;139673;-87
2024/02/01 15:46:27;;;;;;;18.90;4.10;;;;;;;6.34;90.87;100980.61;222859;1264;96474;-88
2024/02/01 15:51:28;;;;;;;15.60;3.40;;;;;;;6.29;91.02;100981.98;222252;1264;139475;-89
2024/02/01 15:56:28;;;;;;;20.00;4.60;;;;;;;6.24;91.11;100986.26;222932;1264;138933;-90
2024/02/01 16:01:29;;;;;;;20.40;3.70;;;;;;;6.20;91.11;100990.95;222434;1264;139472;-89
2024/02/01 16:06:32;;;;;;;25.10;4.70;;;;;;;6.17;91.69;100993.02;223273;1263;138945;-88
2024/02/01 16:11:35;;;;;;;10.20;3.20;;;;;;;6.17;91.05;100996.70;222771;1264;139501;-90
2024/02/01 16:16:41;;;;;;;21.30;5.10;;;;;;;6.16;91.82;101007.20;223247;1264;108260;-91
2024/02/01 16:21:42;;;;;;;24.70;5.10;;;;;;;6.14;92.32;101020.62;222743;1268;141311;-93
2024/02/01 16:26:42;;;;;;;22.70;4.20;;;;;;;6.12;92.83;101027.02;223121;1264;138943;-90
2024/02/01 16:31:42;;;;;;;17.30;4.80;;;;;;;6.11;93.25;101023.70;222725;1264;140214;-90
2024/02/01 16:36:57;;;;;;;16.60;4.10;;;;;;;6.10;93.96;101018.42;223282;1264;139312;-92
2024/02/01 16:42:01;;;;;;;19.30;4.30;;;;;;;6.08;94.16;101013.30;222638;1264;140099;-88
2024/02/01 16:47:02;;;;;;;19.90;4.20;;;;;;;6.08;93.98;101010.86;223232;1264;138604;-90
2024/02/01 16:52:02;;;;;;;17.90;4.20;;;;;;;6.07;94.09;101015.28;222731;1264;139950;-89
2024/02/01 16:57:07;;;;;;;26.00;5.30;;;;;;;6.03;94.83;101014.73;220617;1263;138320;-91
2024/02/01 17:02:46;;;;;;;22.30;5.30;;;;;;;5.95;95.31;101015.45;221459;1264;140168;-89
2024/02/01 17:07:46;;;;;;;15.90;4.00;;;;;;;5.85;95.75;101020.17;222963;1264;139176;-87
2024/02/01 17:12:47;;;;;;;14.90;3.90;;;;;;;5.79;96.35;101020.61;222901;1264;140217;-90
2024/02/01 17:17:47;;;;;;;22.20;5.00;;;;;;;5.71;96.49;101025.98;221544;1264;139655;-89
2024/02/01 17:22:48;;;;;;;18.00;4.20;;;;;;;5.65;96.92;101024.61;220243;1267;140360;-90
2024/02/01 17:27:48;;;;;;;17.10;4.50;;;;;;;5.59;97.09;101024.43;219791;1264;99183;-84
2024/02/01 17:32:49;;;;;;;17.60;3.90;;;;;;;5.54;97.62;101032.27;219438;1264;139662;-86
2024/02/01 17:37:49;;;;;;;25.40;4.80;;;;;;;5.47;97.80;101038.06;219553;1264;138634;-85
2024/02/01 17:42:50;;;;;;;23.10;6.50;;;;;;;5.40;98.18;101044.16;219438;1264;139921;-85
2024/02/01 17:48:08;;;;;;;16.20;4.40;;;;;;;5.35;98.43;101042.59;219981;1263;138543;-83
2024/02/01 17:53:10;;;;;;;22.90;4.80;;;;;;;5.31;98.97;101047.21;219472;1264;139471;-84
2024/02/01 17:58:31;;;;;;;23.10;4.40;;;;;;;5.28;99.23;101047.63;220298;1264;97956;-85
2024/02/01 18:03:32;;;;;;;23.00;5.00;;;;;;;5.24;99.77;101052.98;219535;1264;139306;-84
2024/02/01 18:08:38;;;;;;;26.70;5.00;;;;;;;5.22;99.95;101049.84;219967;1264;139156;-84
2024/02/01 18:13:39;;;;;;;25.10;5.10;;;;;;;5.19;100.00;101047.20;220299;1264;139267;-84
2024/02/01 18:18:40;;;;;;;19.30;5.00;;;;;;;5.19;100.00;101052.22;219875;1264;139425;-84
2024/02/01 18:23:40;;;;;;;17.50;4.10;;;;;;;5.19;100.00;101048.19;219292;1264;139460;-85
2024/02/01 18:28:42;;;;;;;21.60;5.80;;;;;;;5.22;100.00;101058.36;219869;1264;98349;-87
2024/02/01 18:33:44;;;;;;;19.00;3.90;;;;;;;5.24;100.00;101053.07;219217;1266;139781;-82
2024/02/01 18:38:55;;;;;;;25.60;5.00;;;;;;;5.28;100.00;101059.23;220192;1264;139054;-84
2024/02/01 18:44:17;;;;;;;26.80;5.40;;;;;;;5.29;100.00;101067.31;219380;1263;139780;-84
2024/02/01 18:49:18;;;;;;;28.60;4.70;;;;;;;5.33;100.00;101071.77;219631;1264;139619;-84
2024/02/01 18:54:19;;;;;;;19.70;4.70;;;;;;;5.34;100.00;101076.51;219230;1266;140015;-84
2024/02/01 18:59:50;;;;;;;26.50;4.50;;;;;;;5.35;100.00;101076.79;219551;1266;138645;-87
2024/02/01 19:04:55;;;;;;;20.00;4.30;;;;;;;5.37;100.00;101064.37;219240;1265;139452;-85
2024/02/01 19:09:56;;;;;;;28.80;5.60;;;;;;;5.39;100.00;101069.15;219711;1267;139974;-84
2024/02/01 19:14:58;;;;;;;23.30;5.30;;;;;;;5.40;100.00;101075.89;220073;1265;138299;-86
2024/02/01 19:20:09;;;;;;;27.70;5.10;;;;;;;5.40;100.00;101069.71;218982;1264;138942;-85
2024/02/01 19:25:14;;;;;;;21.00;4.40;;;;;;;5.37;100.00;101089.02;219800;1267;138660;-89
2024/02/01 19:30:35;;;;;;;24.20;4.20;;;;;;;5.35;100.00;101094.95;219795;1267;139432;-88
2024/02/01 19:35:37;;;;;;;19.50;4.60;;;;;;;5.31;100.00;101103.02;219627;1267;138642;-90
2024/02/01 19:40:38;;;;;;;20.00;4.80;;;;;;;5.22;100.00;101100.47;219039;1264;140546;-92
2024/02/01 19:45:40;;;;;;;17.40;4.10;;;;;;;5.12;100.00;101091.08;219618;1263;138375;-87
2024/02/01 19:50:40;;;;;;;21.30;4.80;;;;;;;5.05;100.00;101096.59;219014;1264;139928;-89
2024/02/01 19:55:41;;;;;;;17.40;5.60;;;;;;;5.01;100.00;101107.25;219786;1266;138634;-89
2024/02/01 20:00:42;;;;;;;29.40;4.90;;;;;;;4.95;100.00;101115.09;219146;1265;140194;-88
2024/02/01 20:05:43;;;;;;;24.50;5.10;;;;;;;4.90;100.00;101125.08;219779;1265;138754;-88
2024/02/01 20:10:43;;;;;;;22.40;5.20;;;;;;;4.87;100.00;101125.55;220372;1264;140947;-86
2024/02/01 20:15:44;;;;;;;25.50;4.50;;;;;;;4.85;100.00;101129.30;220717;1264;97895;-90
2024/02/01 20:20:44;;;;;;;16.20;4.20;;;;;;;4.84;100.00;101130.13;219366;1265;139391;-91
2024/02/01 20:25:45;;;;;;;19.60;4.30;;;;;;;4.82;100.00;101135.54;220072;1264;139352;-90
2024/02/01 20:30:45;;;;;;;22.40;4.10;;;;;;;4.80;100.00;101127.41;219747;1264;139893;-90
2024/02/01 20:35:46;;;;;;;16.10;4.30;;;;;;;4.78;100.00;101128.44;219966;1264;139922;-90
2024/02/01 20:40:53;;;;;;;23.10;4.10;;;;;;;4.77;100.00;101128.45;219605;1267;138945;-90
2024/02/01 20:45:54;;;;;;;24.40;4.70;;;;;;;4.76;100.00;101128.51;220182;1263;97968;-91
2024/02/01 20:50:54;;;;;;;22.10;4.90;;;;;;;4.78;100.00;101125.46;219728;1264;139348;-92
2024/02/01 20:55:55;;;;;;;22.50;5.00;;;;;;;4.80;100.00;101136.14;220025;1267;139163;-91
2024/02/01 21:00:55;;;;;;;22.40;5.30;;;;;;;4.81;100.00;101146.95;219525;1266;140363;-91
2024/02/01 21:05:56;;;;;;;23.60;6.30;;;;;;;4.82;100.00;101154.09;220195;1264;139103;-92
2024/02/01 21:10:57;;;;;;;24.20;4.70;;;;;;;4.83;100.00;101160.70;220319;1264;140025;-92
2024/02/01 21:15:58;;;;;;;28.00;5.40;;;;;;;4.85;100.00;101164.52;219916;1266;97986;-91
2024/02/01 21:21:04;;;;;;;16.60;4.20;;;;;;;4.85;100.00;101171.48;219514;1263;139569;-89
2024/02/01 21:26:14;;;;;;;21.50;4.20;;;;;;;4.88;100.00;101177.15;219972;1264;138515;-91
2024/02/01 21:31:24;;;;;;;29.60;5.40;;;;;;;4.90;100.00;101183.31;219393;1265;139686;-91
2024/02/01 21:36:27;;;;;;;20.00;6.20;;;;;;;4.90;100.00;101184.08;220073;1265;140043;-92
2024/02/01 21:41:31;;;;;;;20.20;4.10;;;;;;;4.90;100.00;101188.59;220134;1265;139557;-91
2024/02/01 21:46:37;;;;;;;20.50;6.50;;;;;;;4.88;100.00;101187.90;220540;1266;97916;-91
2024/02/01 21:51:38;;;;;;;23.60;8.90;;;;;;;4.88;100.00;101193.70;219484;1263;139375;-93
2024/02/01 21:56:39;;;;;;;19.10;3.50;;;;;;;4.85;100.00;101199.45;219997;1266;139174;-91
2024/02/01 22:01:39;;;;;;;18.50;3.40;;;;;;;4.83;100.00;101200.98;219362;1265;140049;-92
2024/02/01 22:06:40;;;;;;;22.30;3.70;;;;;;;4.82;100.00;101205.52;220453;1264;137508;-92
2024/02/01 22:11:40;;;;;;;26.20;3.30;;;;;;;4.79;100.00;101201.34;221776;1264;138781;-93
2024/02/01 22:16:42;;;;;;;22.70;3.30;;;;;;;4.76;100.00;101214.99;221008;1267;97982;-92
2024/02/01 22:21:43;;;;;;;14.30;4.20;;;;;;;4.75;100.00;101210.48;219655;1266;139461;-88
2024/02/01 22:26:43;;;;;;;17.00;3.30;;;;;;;4.71;100.00;101213.36;220287;1267;138504;-92
2024/02/01 22:31:45;;;;;;;20.40;3.70;;;;;;;4.67;100.00;101214.70;219671;1264;140340;-91
2024/02/01 22:36:46;;;;;;;15.60;2.60;;;;;;;4.61;100.00;101209.97;220615;1263;139484;-93
2024/02/01 22:41:48;;;;;;;19.20;3.10;;;;;;;4.55;100.00;101215.87;220200;1266;139664;-93
2024/02/01 22:46:49;;;;;;;14.30;2.90;;;;;;;4.53;100.00;101222.20;221103;1267;140407;-94
2024/02/01 22:51:51;;;;;;;15.30;3.20;;;;;;;4.51;100.00;101240.32;220234;1267;139696;-89
2024/02/01 22:56:52;;;;;;;15.40;2.90;;;;;;;4.49;100.00;101240.73;220714;1265;139307;-89
2024/02/01 23:01:53;;;;;;;20.80;3.80;;;;;;;4.50;100.00;101236.31;219790;1264;139924;-89
2024/02/01 23:06:54;;;;;;;19.50;3.30;;;;;;;4.50;100.00;101237.83;220092;1269;139287;-92
2024/02/01 23:11:54;;;;;;;18.10;4.00;;;;;;;4.50;100.00;101238.75;220066;1266;139852;-93
2024/02/01 23:16:55;;;;;;;23.20;3.20;;;;;;;4.51;100.00;101252.18;220681;1264;138678;-91
2024/02/01 23:21:55;;;;;;;24.60;3.40;;;;;;;4.50;100.00;101248.35;220208;1266;140201;-89
2024/02/01 23:26:55;;;;;;;24.20;4.10;;;;;;;4.50;100.00;101249.17;220589;1268;138630;-92
2024/02/01 23:31:56;;;;;;;17.00;2.60;;;;;;;4.49;100.00;101246.80;219403;1268;140252;-87
2024/02/01 23:36:56;;;;;;;21.60;3.70;;;;;;;4.48;100.00;101245.35;219746;1266;139430;-87